Time;durP1;ratioP1;P1;durP2;ratioP2;P2;SDS_P1;SDS_P2;PMS_P1;PMS_P2;Temp;Humidity;BMP_temperature;BMP_pressure;BME280_temperature;BME280_humidity;BME280_pressure;Samples;Min_cycle;Max_cycle;Signal;HPM_P1;HPM_P2
2021/01/30 00:02:06;;;;;;;12.95;4.20;;;;;;;;;;5030841;28;20530;-86
2021/01/30 00:04:32;;;;;;;13.05;4.43;;;;;;;;;;5025587;28;20190;-83
2021/01/30 00:06:58;;;;;;;13.55;4.60;;;;;;;;;;5027370;28;20558;-86
2021/01/30 00:09:25;;;;;;;17.42;4.20;;;;;;;;;;5024056;28;20691;-86
2021/01/30 00:11:52;;;;;;;15.57;4.25;;;;;;;;;;5035014;28;20193;-84
2021/01/30 00:14:22;;;;;;;11.85;4.78;;;;;;;;;;5030560;28;20662;-84
2021/01/30 00:16:48;;;;;;;17.17;4.55;;;;;;;;;;5030556;28;20218;-86
2021/01/30 00:19:15;;;;;;;18.65;4.45;;;;;;;;;;5029706;28;20204;-84
2021/01/30 00:21:40;;;;;;;12.93;5.30;;;;;;;;;;5025489;28;20205;-85
2021/01/30 00:24:07;;;;;;;14.15;4.38;;;;;;;;;;5022019;28;20185;-82
2021/01/30 00:26:33;;;;;;;23.10;4.22;;;;;;;;;;5012500;28;20209;-86
2021/01/30 00:28:59;;;;;;;17.55;5.45;;;;;;;;;;5038889;28;20234;-84
2021/01/30 00:31:25;;;;;;;10.80;4.50;;;;;;;;;;5028550;28;20182;-85
2021/01/30 00:33:51;;;;;;;13.68;4.80;;;;;;;;;;5021704;28;20186;-84
2021/01/30 00:36:17;;;;;;;15.10;4.22;;;;;;;;;;5034767;28;20182;-83
2021/01/30 00:38:43;;;;;;;20.08;4.93;;;;;;;;;;5023308;28;20185;-84
2021/01/30 00:41:09;;;;;;;15.95;5.15;;;;;;;;;;5023544;28;20651;-83
2021/01/30 00:43:35;;;;;;;15.80;4.45;;;;;;;;;;5030160;28;20187;-86
2021/01/30 00:46:01;;;;;;;14.60;5.90;;;;;;;;;;5023480;28;20179;-84
2021/01/30 00:48:27;;;;;;;23.35;5.95;;;;;;;;;;5040150;28;20436;-85
2021/01/30 00:50:53;;;;;;;17.50;4.77;;;;;;;;;;5023680;28;20208;-84
2021/01/30 00:53:19;;;;;;;16.23;4.67;;;;;;;;;;5029388;28;20461;-85
2021/01/30 00:55:45;;;;;;;13.77;5.05;;;;;;;;;;5029060;28;20496;-85
2021/01/30 00:58:11;;;;;;;14.85;3.65;;;;;;;;;;5033346;28;20264;-83
2021/01/30 01:00:37;;;;;;;18.00;5.43;;;;;;;;;;5033369;28;20228;-83
2021/01/30 01:03:03;;;;;;;17.90;5.03;;;;;;;;;;5017932;28;20432;-84
2021/01/30 01:05:29;;;;;;;17.98;5.35;;;;;;;;;;5022027;28;20198;-84
2021/01/30 01:07:55;;;;;;;17.27;5.30;;;;;;;;;;5030997;28;20185;-83
2021/01/30 01:10:22;;;;;;;14.80;4.97;;;;;;;;;;5039120;28;20171;-84
2021/01/30 01:12:48;;;;;;;17.20;4.85;;;;;;;;;;5021100;28;20202;-84
2021/01/30 01:15:17;;;;;;;15.88;4.32;;;;;;;;;;5033532;28;20205;-83
2021/01/30 01:17:43;;;;;;;15.80;4.82;;;;;;;;;;5017493;28;20185;-83
2021/01/30 01:20:12;;;;;;;15.52;4.68;;;;;;;;;;5030354;28;20229;-85
2021/01/30 01:22:38;;;;;;;18.67;5.03;;;;;;;;;;5040800;28;20198;-83
2021/01/30 01:25:04;;;;;;;25.70;8.23;;;;;;;;;;5043682;28;20169;-86
2021/01/30 01:27:30;;;;;;;24.35;7.75;;;;;;;;;;5016738;28;20241;-84
2021/01/30 01:29:56;;;;;;;20.33;5.20;;;;;;;;;;5017098;28;20190;-83
2021/01/30 01:32:26;;;;;;;23.25;5.65;;;;;;;;;;5025279;28;20504;-85
2021/01/30 01:34:52;;;;;;;27.48;7.38;;;;;;;;;;5040644;28;20205;-84
2021/01/30 01:37:20;;;;;;;23.05;6.95;;;;;;;;;;5044702;28;20743;-83
2021/01/30 01:39:46;;;;;;;14.88;4.80;;;;;;;;;;5040615;28;20204;-83
2021/01/30 01:42:14;;;;;;;22.77;5.00;;;;;;;;;;5035773;28;20663;-85
2021/01/30 01:44:40;;;;;;;19.67;5.45;;;;;;;;;;5035471;28;20437;-83
2021/01/30 01:47:09;;;;;;;19.23;4.85;;;;;;;;;;5040587;28;20246;-85
2021/01/30 01:49:36;;;;;;;20.52;5.13;;;;;;;;;;5040821;28;20198;-86
2021/01/30 01:52:07;;;;;;;24.92;4.90;;;;;;;;;;5034205;28;20624;-83
2021/01/30 01:54:34;;;;;;;26.08;6.10;;;;;;;;;;5033506;28;20194;-86
2021/01/30 01:57:06;;;;;;;17.67;6.55;;;;;;;;;;5033997;28;20276;-82
2021/01/30 01:59:32;;;;;;;24.63;5.60;;;;;;;;;;5029317;28;20257;-82
2021/01/30 02:01:58;;;;;;;29.88;7.10;;;;;;;;;;5042128;28;20197;-83
2021/01/30 02:04:24;;;;;;;32.88;5.70;;;;;;;;;;5031594;28;20225;-83
2021/01/30 02:06:51;;;;;;;25.77;5.35;;;;;;;;;;5034004;28;20581;-83
2021/01/30 02:09:19;;;;;;;30.95;8.68;;;;;;;;;;5036921;28;20257;-83
2021/01/30 02:12:05;;;;;;;27.00;5.68;;;;;;;;;;5052300;28;20193;-84
2021/01/30 02:14:33;;;;;;;30.80;6.63;;;;;;;;;;5029562;28;20197;-84
2021/01/30 02:17:19;;;;;;;13.13;4.93;;;;;;;;;;5050253;28;20186;-86
2021/01/30 02:20:05;;;;;;;27.30;5.70;;;;;;;;;;5017943;28;20222;-84
2021/01/30 02:22:43;;;;;;;19.95;4.60;;;;;;;;;;5041264;28;20185;-87
2021/01/30 02:25:29;;;;;;;29.50;5.97;;;;;;;;;;5038235;28;20220;-88
2021/01/30 02:28:05;;;;;;;23.23;6.15;;;;;;;;;;5033488;28;20177;-87
2021/01/30 02:30:34;;;;;;;22.35;4.93;;;;;;;;;;5035455;28;20509;-88
2021/01/30 02:33:18;;;;;;;20.92;5.28;;;;;;;;;;5034150;28;20243;-89
2021/01/30 02:35:57;;;;;;;16.63;4.40;;;;;;;;;;5030579;28;20182;-89
2021/01/30 02:38:24;;;;;;;29.55;4.95;;;;;;;;;;5021199;28;20189;-87
2021/01/30 02:40:52;;;;;;;23.08;4.80;;;;;;;;;;5029490;28;20233;-88
2021/01/30 02:43:20;;;;;;;17.10;3.78;;;;;;;;;;5034538;28;20270;-89
2021/01/30 02:45:58;;;;;;;25.00;4.70;;;;;;;;;;5027309;28;20876;-88
2021/01/30 02:48:26;;;;;;;24.08;5.68;;;;;;;;;;5037192;28;20202;-86
2021/01/30 02:50:55;;;;;;;20.70;4.65;;;;;;;;;;5038176;28;20317;-87
2021/01/30 02:53:23;;;;;;;13.95;3.55;;;;;;;;;;5041583;28;20246;-89
2021/01/30 02:55:52;;;;;;;15.18;3.80;;;;;;;;;;5032330;28;20655;-87
2021/01/30 02:58:19;;;;;;;9.60;4.55;;;;;;;;;;5031069;28;20178;-85
2021/01/30 03:00:47;;;;;;;14.55;3.03;;;;;;;;;;5023874;28;20236;-89
2021/01/30 03:03:13;;;;;;;16.75;2.80;;;;;;;;;;5036781;28;20205;-90
2021/01/30 03:05:39;;;;;;;14.75;3.15;;;;;;;;;;5042635;28;20185;-86
2021/01/30 03:08:15;;;;;;;11.57;2.70;;;;;;;;;;5031834;28;20189;-86
2021/01/30 03:10:47;;;;;;;10.30;3.08;;;;;;;;;;5041659;28;20434;-85
2021/01/30 03:13:26;;;;;;;15.80;3.55;;;;;;;;;;5022152;28;20246;-86
2021/01/30 03:15:59;;;;;;;16.02;3.33;;;;;;;;;;5036633;28;20208;-86
2021/01/30 03:18:29;;;;;;;11.27;2.22;;;;;;;;;;5037052;28;20197;-86
2021/01/30 03:20:55;;;;;;;7.72;2.70;;;;;;;;;;5020186;28;20206;-86
2021/01/30 03:23:22;;;;;;;10.13;2.10;;;;;;;;;;5020320;28;20186;-86
2021/01/30 03:25:48;;;;;;;6.25;2.17;;;;;;;;;;5025011;28;20441;-85
2021/01/30 03:28:15;;;;;;;11.40;2.20;;;;;;;;;;5030300;28;20170;-86
2021/01/30 03:30:42;;;;;;;12.38;2.15;;;;;;;;;;5044148;28;20204;-86
2021/01/30 03:33:09;;;;;;;13.68;1.88;;;;;;;;;;5042257;28;20249;-87
2021/01/30 03:35:35;;;;;;;13.32;2.72;;;;;;;;;;5041562;28;20186;-85
2021/01/30 03:38:01;;;;;;;10.07;2.10;;;;;;;;;;5028741;28;20190;-86
2021/01/30 03:40:27;;;;;;;7.28;2.75;;;;;;;;;;5016720;28;20206;-85
2021/01/30 03:42:53;;;;;;;14.35;3.13;;;;;;;;;;5025921;28;20178;-86
2021/01/30 03:45:23;;;;;;;11.38;2.92;;;;;;;;;;5025737;28;20212;-87
2021/01/30 03:47:49;;;;;;;12.38;3.33;;;;;;;;;;5041315;28;20209;-86
2021/01/30 03:50:15;;;;;;;13.15;2.45;;;;;;;;;;5029388;28;20325;-86
2021/01/30 03:52:41;;;;;;;6.05;3.10;;;;;;;;;;5019231;28;20224;-87
2021/01/30 03:55:07;;;;;;;11.27;2.40;;;;;;;;;;5020199;28;20546;-86
2021/01/30 03:57:33;;;;;;;17.80;3.13;;;;;;;;;;5035361;28;20197;-85
2021/01/30 03:59:59;;;;;;;8.20;2.20;;;;;;;;;;5035256;28;20205;-87
2021/01/30 04:02:25;;;;;;;13.00;3.42;;;;;;;;;;5012749;28;20445;-88
2021/01/30 04:04:51;;;;;;;5.85;1.90;;;;;;;;;;5031042;28;20186;-86
2021/01/30 04:07:17;;;;;;;10.55;2.50;;;;;;;;;;5028660;28;20181;-86
2021/01/30 04:09:43;;;;;;;10.93;2.60;;;;;;;;;;5021461;28;20194;-88
2021/01/30 04:12:09;;;;;;;12.20;2.70;;;;;;;;;;5035203;28;20444;-87
2021/01/30 04:14:36;;;;;;;9.93;2.85;;;;;;;;;;5015270;28;22356;-88
2021/01/30 04:17:02;;;;;;;15.38;2.42;;;;;;;;;;5026127;28;20213;-87
2021/01/30 04:19:28;;;;;;;10.82;2.20;;;;;;;;;;5025728;28;20209;-85
2021/01/30 04:21:54;;;;;;;7.18;2.35;;;;;;;;;;5043709;28;20186;-87
2021/01/30 04:24:20;;;;;;;9.57;2.03;;;;;;;;;;5023767;28;20201;-88
2021/01/30 04:26:47;;;;;;;9.07;1.83;;;;;;;;;;5023155;28;20193;-87
2021/01/30 04:29:13;;;;;;;9.27;1.90;;;;;;;;;;5041171;28;20435;-87
2021/01/30 04:31:39;;;;;;;3.07;2.00;;;;;;;;;;5009722;28;697129;-88
2021/01/30 04:34:05;;;;;;;15.63;2.40;;;;;;;;;;5027856;28;20208;-87
2021/01/30 04:36:31;;;;;;;8.27;2.30;;;;;;;;;;5023308;28;20193;-87
2021/01/30 04:38:57;;;;;;;9.65;2.20;;;;;;;;;;5024139;28;20205;-87
2021/01/30 04:41:26;;;;;;;10.80;2.70;;;;;;;;;;5040884;28;20182;-86
2021/01/30 04:43:59;;;;;;;7.03;1.90;;;;;;;;;;5036823;28;20192;-86
2021/01/30 04:46:34;;;;;;;11.85;2.65;;;;;;;;;;5033515;28;20225;-87
2021/01/30 04:49:09;;;;;;;6.50;1.50;;;;;;;;;;5035080;28;20186;-87
2021/01/30 04:51:40;;;;;;;12.82;2.25;;;;;;;;;;5035589;28;20520;-87
2021/01/30 04:54:06;;;;;;;6.00;1.80;;;;;;;;;;5018081;28;20239;-86
2021/01/30 04:56:48;;;;;;;6.50;2.10;;;;;;;;;;5014373;28;20189;-87
2021/01/30 04:59:14;;;;;;;10.20;1.77;;;;;;;;;;5029854;28;20459;-86
2021/01/30 05:01:55;;;;;;;9.37;1.87;;;;;;;;;;5038287;28;20182;-87
2021/01/30 05:04:24;;;;;;;7.85;1.80;;;;;;;;;;5021353;28;20425;-86
2021/01/30 05:06:52;;;;;;;7.03;1.40;;;;;;;;;;5042142;28;20170;-86
2021/01/30 05:09:23;;;;;;;5.47;1.70;;;;;;;;;;5036902;28;20220;-86
2021/01/30 05:12:07;;;;;;;3.30;1.30;;;;;;;;;;5023127;28;20189;-86
2021/01/30 05:14:35;;;;;;;8.50;1.55;;;;;;;;;;5040606;28;20216;-86
2021/01/30 05:17:20;;;;;;;4.78;1.20;;;;;;;;;;5029127;28;20205;-86
2021/01/30 05:19:49;;;;;;;6.70;1.60;;;;;;;;;;5025736;28;20539;-86
2021/01/30 05:22:16;;;;;;;7.63;1.23;;;;;;;;;;5029290;28;20178;-85
2021/01/30 05:24:44;;;;;;;3.53;1.50;;;;;;;;;;5022007;28;20598;-87
2021/01/30 05:27:13;;;;;;;6.03;1.20;;;;;;;;;;5019475;28;20257;-86
2021/01/30 05:29:39;;;;;;;4.07;0.98;;;;;;;;;;5039509;28;20243;-86
2021/01/30 05:32:12;;;;;;;1.50;1.10;;;;;;;;;;5031495;28;20233;-86
2021/01/30 05:34:44;;;;;;;6.72;1.20;;;;;;;;;;5040330;28;20452;-87
2021/01/30 05:37:19;;;;;;;8.32;0.90;;;;;;;;;;5039050;28;20264;-86
2021/01/30 05:39:52;;;;;;;3.60;1.00;;;;;;;;;;5033627;28;20277;-87
2021/01/30 05:42:18;;;;;;;5.97;1.00;;;;;;;;;;5034322;28;20193;-88
2021/01/30 05:44:48;;;;;;;4.57;1.10;;;;;;;;;;5031958;28;20182;-87
2021/01/30 05:47:19;;;;;;;0.90;0.60;;;;;;;;;;5055314;28;20443;-85
2021/01/30 05:50:04;;;;;;;7.53;0.90;;;;;;;;;;5044306;28;20190;-87
2021/01/30 05:52:31;;;;;;;2.13;0.70;;;;;;;;;;5041414;28;20207;-85
2021/01/30 05:54:57;;;;;;;5.13;0.80;;;;;;;;;;5043433;28;20173;-86
2021/01/30 05:57:23;;;;;;;3.13;0.90;;;;;;;;;;5050573;28;20221;-86
2021/01/30 05:59:52;;;;;;;5.35;0.80;;;;;;;;;;5033763;28;20605;-85
2021/01/30 06:02:20;;;;;;;1.10;0.63;;;;;;;;;;5052868;28;20183;-85
2021/01/30 06:04:46;;;;;;;2.70;0.70;;;;;;;;;;5043578;28;20558;-85
2021/01/30 06:07:30;;;;;;;3.72;1.10;;;;;;;;;;5034512;28;20178;-85
2021/01/30 06:09:57;;;;;;;0.93;0.80;;;;;;;;;;5033175;28;20178;-86
2021/01/30 06:12:26;;;;;;;0.98;0.85;;;;;;;;;;5033526;28;20190;-87
2021/01/30 06:14:52;;;;;;;6.07;1.75;;;;;;;;;;5050080;28;20659;-85
2021/01/30 06:17:24;;;;;;;5.55;0.90;;;;;;;;;;5024787;28;20277;-84
2021/01/30 06:20:02;;;;;;;2.38;1.00;;;;;;;;;;5028719;28;20216;-85
2021/01/30 06:22:28;;;;;;;1.25;0.70;;;;;;;;;;5026111;28;20256;-86
2021/01/30 06:24:54;;;;;;;2.20;0.90;;;;;;;;;;5037703;28;20528;-83
2021/01/30 06:27:30;;;;;;;0.70;0.70;;;;;;;;;;5033141;28;20509;-86
2021/01/30 06:30:00;;;;;;;1.52;0.90;;;;;;;;;;5032167;28;20447;-83
2021/01/30 06:32:31;;;;;;;1.55;0.55;;;;;;;;;;5030796;28;20284;-85
2021/01/30 06:35:13;;;;;;;0.60;0.50;;;;;;;;;;5028237;28;20178;-84
2021/01/30 06:37:43;;;;;;;1.55;0.70;;;;;;;;;;5033762;28;20189;-83
2021/01/30 06:40:18;;;;;;;0.65;0.50;;;;;;;;;;5029173;28;20702;-86
2021/01/30 06:42:45;;;;;;;0.68;0.65;;;;;;;;;;5035765;28;20208;-84
2021/01/30 06:45:16;;;;;;;8.43;1.70;;;;;;;;;;5030591;28;20221;-89
2021/01/30 06:47:47;;;;;;;1.95;0.70;;;;;;;;;;5034252;28;20182;-83
2021/01/30 06:50:33;;;;;;;0.60;0.52;;;;;;;;;;5011007;28;20192;-85
2021/01/30 06:53:22;;;;;;;5.53;0.80;;;;;;;;;;5036043;28;20212;-86
2021/01/30 06:55:49;;;;;;;0.95;0.50;;;;;;;;;;5006340;28;20198;-86
2021/01/30 06:58:36;;;;;;;0.60;0.50;;;;;;;;;;5032736;28;20189;-84
2021/01/30 07:01:20;;;;;;;1.50;0.60;;;;;;;;;;5021576;28;20679;-85
2021/01/30 07:04:05;;;;;;;0.80;0.80;;;;;;;;;;5031813;28;20213;-84
2021/01/30 07:06:46;;;;;;;5.30;0.88;;;;;;;;;;5035437;28;20177;-84
2021/01/30 07:09:21;;;;;;;1.05;0.50;;;;;;;;;;5018258;28;20182;-85
2021/01/30 07:11:50;;;;;;;1.42;0.70;;;;;;;;;;5031947;28;20181;-85
2021/01/30 07:14:25;;;;;;;0.52;0.52;;;;;;;;;;5033058;28;20628;-84
2021/01/30 07:17:07;;;;;;;0.77;0.50;;;;;;;;;;5027453;28;20182;-86
2021/01/30 07:19:35;;;;;;;0.65;0.60;;;;;;;;;;5024869;28;20236;-85
2021/01/30 07:22:07;;;;;;;0.40;0.40;;;;;;;;;;5036982;28;20204;-84
2021/01/30 07:24:44;;;;;;;0.50;0.50;;;;;;;;;;5022143;28;20203;-85
2021/01/30 07:27:17;;;;;;;0.73;0.50;;;;;;;;;;5019288;28;20209;-85
2021/01/30 07:29:50;;;;;;;2.20;0.60;;;;;;;;;;5017597;28;20217;-86
2021/01/30 07:32:36;;;;;;;1.08;0.95;;;;;;;;;;5042865;28;20226;-86
2021/01/30 07:35:04;;;;;;;1.98;0.50;;;;;;;;;;5038389;28;20452;-88
2021/01/30 07:37:51;;;;;;;0.60;0.50;;;;;;;;;;5045087;28;20243;-85
2021/01/30 07:40:22;;;;;;;3.35;0.50;;;;;;;;;;5040146;28;20201;-87
2021/01/30 07:42:52;;;;;;;0.45;0.45;;;;;;;;;;5028363;28;20178;-87
2021/01/30 07:45:24;;;;;;;2.55;0.50;;;;;;;;;;5022243;28;20710;-87
2021/01/30 07:47:54;;;;;;;1.17;0.50;;;;;;;;;;5024854;28;20217;-85
2021/01/30 07:50:22;;;;;;;1.25;0.55;;;;;;;;;;5029105;28;20352;-88
2021/01/30 07:52:53;;;;;;;0.77;0.70;;;;;;;;;;5029609;28;20186;-89
2021/01/30 07:55:19;;;;;;;0.60;0.50;;;;;;;;;;5044242;28;20185;-87
2021/01/30 07:57:56;;;;;;;0.88;0.50;;;;;;;;;;5037484;28;20257;-89
2021/01/30 08:00:25;;;;;;;1.25;0.60;;;;;;;;;;5021125;28;20208;-89
2021/01/30 08:03:07;;;;;;;0.63;0.50;;;;;;;;;;5019307;28;20178;-86
2021/01/30 08:05:36;;;;;;;2.05;0.60;;;;;;;;;;5032771;28;20178;-86
2021/01/30 08:08:19;;;;;;;1.00;1.00;;;;;;;;;;5031154;28;20198;-87
2021/01/30 08:10:54;;;;;;;3.05;1.17;;;;;;;;;;5037331;28;20683;-88
2021/01/30 08:13:26;;;;;;;1.50;0.70;;;;;;;;;;5033842;28;20312;-87
2021/01/30 08:16:02;;;;;;;1.13;0.80;;;;;;;;;;5037542;28;20178;-90
2021/01/30 08:18:39;;;;;;;0.90;0.70;;;;;;;;;;5024151;28;20556;-88
2021/01/30 08:21:08;;;;;;;0.70;0.70;;;;;;;;;;5026417;28;20225;-89
2021/01/30 08:23:34;;;;;;;1.30;0.82;;;;;;;;;;5041991;28;20260;-88
2021/01/30 08:26:03;;;;;;;1.10;0.70;;;;;;;;;;5028547;28;20182;-88
2021/01/30 08:28:37;;;;;;;1.50;1.15;;;;;;;;;;5024219;28;20188;-85
2021/01/30 08:31:03;;;;;;;0.90;0.60;;;;;;;;;;5024276;28;20187;-87
2021/01/30 08:33:48;;;;;;;0.60;0.60;;;;;;;;;;5035616;28;20234;-87
2021/01/30 08:36:32;;;;;;;1.50;0.88;;;;;;;;;;5021150;28;20190;-84
2021/01/30 08:39:03;;;;;;;2.22;0.80;;;;;;;;;;5036358;28;20193;-84
2021/01/30 08:41:45;;;;;;;0.70;0.70;;;;;;;;;;5106863;27;20582;-88
2021/01/30 08:44:32;;;;;;;1.10;0.80;;;;;;;;;;5117168;28;21190;-83
2021/01/30 08:47:31;;;;;;;0.93;0.75;;;;;;;;;;5131076;27;20233;-85
2021/01/30 08:49:57;;;;;;;1.02;0.75;;;;;;;;;;5029584;28;20199;-84
2021/01/30 08:52:33;;;;;;;0.80;0.80;;;;;;;;;;5024531;28;20178;-82
2021/01/30 08:55:19;;;;;;;0.80;0.65;;;;;;;;;;5037068;28;20437;-87
2021/01/30 08:57:45;;;;;;;3.85;0.80;;;;;;;;;;5036135;28;20197;-85
2021/01/30 09:00:13;;;;;;;1.30;0.93;;;;;;;;;;5018228;28;20222;-80
2021/01/30 09:02:39;;;;;;;2.10;1.05;;;;;;;;;;5014456;28;20190;-81
2021/01/30 09:05:09;;;;;;;2.00;1.27;;;;;;;;;;5037280;28;20217;-84
2021/01/30 09:07:38;;;;;;;3.40;1.00;;;;;;;;;;5017091;28;20536;-87
2021/01/30 09:10:13;;;;;;;5.47;1.20;;;;;;;;;;5022199;28;20178;-87
2021/01/30 09:12:59;;;;;;;3.72;1.88;;;;;;;;;;5031198;28;20202;-84
2021/01/30 09:15:40;;;;;;;3.50;1.15;;;;;;;;;;5016469;28;20205;-85
2021/01/30 09:18:20;;;;;;;2.30;1.00;;;;;;;;;;5017207;28;20258;-87
2021/01/30 09:20:56;;;;;;;1.25;1.13;;;;;;;;;;5017986;28;20501;-85
2021/01/30 09:23:22;;;;;;;1.25;1.00;;;;;;;;;;5019565;28;20182;-83
2021/01/30 09:25:51;;;;;;;1.33;1.23;;;;;;;;;;5075661;28;20248;-84
2021/01/30 09:28:22;;;;;;;3.33;1.00;;;;;;;;;;5114261;28;20632;-83
2021/01/30 09:30:55;;;;;;;2.08;1.00;;;;;;;;;;5116249;28;20671;-85
2021/01/30 09:33:23;;;;;;;1.17;1.00;;;;;;;;;;5110494;28;20190;-83
2021/01/30 09:35:49;;;;;;;1.50;1.10;;;;;;;;;;5110783;28;20266;-84
2021/01/30 09:38:20;;;;;;;3.40;1.10;;;;;;;;;;5107348;28;20188;-83
2021/01/30 09:40:46;;;;;;;1.40;1.30;;;;;;;;;;5112391;28;20274;-85
2021/01/30 09:43:12;;;;;;;2.05;1.00;;;;;;;;;;5113671;28;20535;-84
2021/01/30 09:45:46;;;;;;;3.25;1.20;;;;;;;;;;5114528;28;20210;-80
2021/01/30 09:48:13;;;;;;;3.45;1.40;;;;;;;;;;5118560;28;20179;-85
2021/01/30 09:50:42;;;;;;;2.22;1.02;;;;;;;;;;5116001;28;20263;-83
2021/01/30 09:53:13;;;;;;;1.73;1.15;;;;;;;;;;5101847;28;20191;-86
2021/01/30 09:55:40;;;;;;;1.40;1.00;;;;;;;;;;5096747;28;20192;-85
2021/01/30 09:58:09;;;;;;;2.85;1.25;;;;;;;;;;5100935;28;20269;-86
2021/01/30 10:00:37;;;;;;;1.65;1.27;;;;;;;;;;5099243;28;20791;-82
2021/01/30 10:03:16;;;;;;;2.88;1.10;;;;;;;;;;5096822;28;20238;-86
2021/01/30 10:05:42;;;;;;;5.50;1.33;;;;;;;;;;5097834;28;20671;-84
2021/01/30 10:08:23;;;;;;;5.13;1.00;;;;;;;;;;5103163;28;20183;-86
2021/01/30 10:10:49;;;;;;;4.70;1.58;;;;;;;;;;5114824;28;20200;-86
2021/01/30 10:13:17;;;;;;;4.82;1.45;;;;;;;;;;5100170;28;20188;-84
2021/01/30 10:15:44;;;;;;;2.03;1.25;;;;;;;;;;5098339;28;20210;-87
2021/01/30 10:18:13;;;;;;;4.07;1.83;;;;;;;;;;5096803;28;20193;-85
2021/01/30 10:20:48;;;;;;;4.13;1.20;;;;;;;;;;5099332;28;20269;-85
2021/01/30 10:23:26;;;;;;;3.05;1.17;;;;;;;;;;5103107;28;20274;-84
2021/01/30 10:26:02;;;;;;;1.88;1.33;;;;;;;;;;5114153;28;20187;-87
2021/01/30 10:28:39;;;;;;;5.90;2.08;;;;;;;;;;5098163;28;20179;-86
2021/01/30 10:31:05;;;;;;;4.45;1.25;;;;;;;;;;5101341;28;20190;-89
2021/01/30 10:33:32;;;;;;;5.43;1.42;;;;;;;;;;5096453;28;20190;-84
2021/01/30 10:35:58;;;;;;;6.93;1.35;;;;;;;;;;5103408;28;20635;-82
2021/01/30 10:38:26;;;;;;;5.30;1.80;;;;;;;;;;5100736;28;20187;-83
2021/01/30 10:40:57;;;;;;;2.47;1.17;;;;;;;;;;5098642;28;20235;-84
2021/01/30 10:43:25;;;;;;;3.67;1.50;;;;;;;;;;5102661;28;20214;-84
2021/01/30 10:45:56;;;;;;;1.60;1.10;;;;;;;;;;5099078;28;20176;-80
2021/01/30 10:48:23;;;;;;;3.80;1.60;;;;;;;;;;5096004;28;20176;-76
2021/01/30 10:50:50;;;;;;;3.53;1.10;;;;;;;;;;5095312;28;20249;-81
2021/01/30 10:53:23;;;;;;;6.70;1.70;;;;;;;;;;5098334;28;20182;-80
2021/01/30 10:55:50;;;;;;;4.90;1.30;;;;;;;;;;5103118;28;20198;-82
2021/01/30 10:58:16;;;;;;;4.60;1.90;;;;;;;;;;5096824;28;20176;-80
2021/01/30 11:00:42;;;;;;;3.10;1.33;;;;;;;;;;5096451;28;20244;-82
2021/01/30 11:03:28;;;;;;;8.15;4.13;;;;;;;;;;5094922;28;20443;-82
2021/01/30 11:05:55;;;;;;;2.60;1.63;;;;;;;;;;5099729;28;20205;-80
2021/01/30 11:08:25;;;;;;;5.07;3.25;;;;;;;;;;5099288;28;20176;-81
2021/01/30 11:10:59;;;;;;;5.25;2.10;;;;;;;;;;5099946;28;20274;-80
2021/01/30 11:13:25;;;;;;;7.97;1.90;;;;;;;;;;5100721;28;20274;-80
2021/01/30 11:15:51;;;;;;;4.57;1.25;;;;;;;;;;5105378;28;20164;-80
2021/01/30 11:18:34;;;;;;;5.40;1.80;;;;;;;;;;5103803;28;20694;-81
2021/01/30 11:21:01;;;;;;;6.03;1.50;;;;;;;;;;5098882;28;20203;-81
2021/01/30 11:23:37;;;;;;;6.25;1.98;;;;;;;;;;5100256;28;20184;-80
2021/01/30 11:26:12;;;;;;;4.03;1.45;;;;;;;;;;5099696;28;20184;-81
2021/01/30 11:28:38;;;;;;;7.07;2.22;;;;;;;;;;5114238;28;20179;-81
2021/01/30 11:31:04;;;;;;;5.30;1.60;;;;;;;;;;5097150;28;20636;-79
2021/01/30 11:33:32;;;;;;;2.90;1.48;;;;;;;;;;5095228;28;20209;-81
2021/01/30 11:35:58;;;;;;;5.60;2.70;;;;;;;;;;5093850;28;20207;-80
2021/01/30 11:38:25;;;;;;;7.57;2.45;;;;;;;;;;5097437;28;20188;-80
2021/01/30 11:40:52;;;;;;;8.05;2.38;;;;;;;;;;5096443;28;20239;-81
2021/01/30 11:43:18;;;;;;;4.15;1.80;;;;;;;;;;5093133;28;20160;-82
2021/01/30 11:45:45;;;;;;;5.10;1.60;;;;;;;;;;5093236;28;20194;-80
2021/01/30 11:48:11;;;;;;;7.13;1.98;;;;;;;;;;5095115;28;20185;-80
2021/01/30 11:50:37;;;;;;;6.05;1.88;;;;;;;;;;5097555;28;20184;-82
2021/01/30 11:53:06;;;;;;;4.88;1.40;;;;;;;;;;5098524;28;20218;-80
2021/01/30 11:55:32;;;;;;;11.13;2.55;;;;;;;;;;5100757;28;20195;-80
2021/01/30 11:57:58;;;;;;;9.32;2.97;;;;;;;;;;5097088;28;20220;-80
2021/01/30 12:00:24;;;;;;;5.60;2.30;;;;;;;;;;5101235;28;20270;-81
2021/01/30 12:02:50;;;;;;;6.40;2.28;;;;;;;;;;5099508;28;20442;-82
2021/01/30 12:05:16;;;;;;;7.22;2.35;;;;;;;;;;5101403;28;20219;-80
2021/01/30 12:07:42;;;;;;;6.20;2.10;;;;;;;;;;5094295;28;20205;-80
2021/01/30 12:10:08;;;;;;;10.23;2.40;;;;;;;;;;5097330;28;20207;-81
2021/01/30 12:12:34;;;;;;;8.48;2.80;;;;;;;;;;5100259;28;20184;-80
2021/01/30 12:15:00;;;;;;;9.60;3.10;;;;;;;;;;5097945;28;20188;-81
2021/01/30 12:17:32;;;;;;;10.27;2.90;;;;;;;;;;5100341;28;20634;-79
2021/01/30 12:19:58;;;;;;;5.72;2.25;;;;;;;;;;5098819;28;20204;-83
2021/01/30 12:22:24;;;;;;;9.73;2.57;;;;;;;;;;5100736;28;20201;-80
2021/01/30 12:24:50;;;;;;;16.20;3.10;;;;;;;;;;5097225;28;20473;-83
2021/01/30 12:27:17;;;;;;;9.32;2.60;;;;;;;;;;5098246;28;20529;-83
2021/01/30 12:29:45;;;;;;;9.52;2.42;;;;;;;;;;5094150;28;20195;-84
2021/01/30 12:32:12;;;;;;;10.98;2.50;;;;;;;;;;5095282;28;20180;-81
2021/01/30 12:34:38;;;;;;;13.30;2.80;;;;;;;;;;5100401;28;20214;-84
2021/01/30 12:37:07;;;;;;;18.17;3.43;;;;;;;;;;5099670;28;20172;-81
2021/01/30 12:39:34;;;;;;;14.52;3.25;;;;;;;;;;5100235;28;20444;-80
2021/01/30 12:42:00;;;;;;;11.07;3.33;;;;;;;;;;5101175;28;20223;-81
2021/01/30 12:44:26;;;;;;;11.90;3.25;;;;;;;;;;5095584;28;20570;-81
2021/01/30 12:46:52;;;;;;;11.70;4.10;;;;;;;;;;5093141;28;20180;-80
2021/01/30 12:49:18;;;;;;;13.07;3.70;;;;;;;;;;5095274;28;20457;-81
2021/01/30 12:51:44;;;;;;;17.23;4.72;;;;;;;;;;5098127;28;20205;-82
2021/01/30 12:54:10;;;;;;;13.45;3.85;;;;;;;;;;5099196;28;20183;-79
2021/01/30 12:56:36;;;;;;;10.90;3.28;;;;;;;;;;5096449;28;20181;-82
2021/01/30 12:59:06;;;;;;;10.80;2.72;;;;;;;;;;5095982;28;20189;-81
2021/01/30 13:01:32;;;;;;;8.75;2.90;;;;;;;;;;5099452;28;20207;-80
2021/01/30 13:03:58;;;;;;;12.38;3.90;;;;;;;;;;5101417;28;20190;-82
2021/01/30 13:06:24;;;;;;;11.03;3.83;;;;;;;;;;5093627;28;20172;-79
2021/01/30 13:08:50;;;;;;;12.27;3.47;;;;;;;;;;5091784;28;20499;-81
2021/01/30 13:11:16;;;;;;;12.02;3.42;;;;;;;;;;5095725;28;20196;-82
2021/01/30 13:13:46;;;;;;;15.25;3.63;;;;;;;;;;5099902;28;20649;-82
2021/01/30 13:16:12;;;;;;;9.45;3.13;;;;;;;;;;5099483;28;20190;-81
2021/01/30 13:18:38;;;;;;;12.90;3.30;;;;;;;;;;5100832;28;20195;-82
2021/01/30 13:21:06;;;;;;;17.88;4.80;;;;;;;;;;5098628;28;20204;-82
2021/01/30 13:23:39;;;;;;;12.20;4.10;;;;;;;;;;5098756;28;20238;-82
2021/01/30 13:26:05;;;;;;;16.08;3.55;;;;;;;;;;5098616;28;20195;-81
2021/01/30 13:28:32;;;;;;;18.25;4.78;;;;;;;;;;5099875;28;20252;-80
2021/01/30 13:30:58;;;;;;;18.50;4.18;;;;;;;;;;5099752;28;20549;-80
2021/01/30 13:33:24;;;;;;;18.37;4.40;;;;;;;;;;5098085;28;20187;-80
2021/01/30 13:35:50;;;;;;;17.00;4.75;;;;;;;;;;5099138;28;20438;-82
2021/01/30 13:38:16;;;;;;;20.05;4.50;;;;;;;;;;5099171;28;20291;-82
2021/01/30 13:40:42;;;;;;;17.13;3.70;;;;;;;;;;5098129;28;20227;-81
2021/01/30 13:43:09;;;;;;;9.63;4.10;;;;;;;;;;5100532;28;20183;-82
2021/01/30 13:45:35;;;;;;;13.73;4.60;;;;;;;;;;5094801;28;20195;-81
2021/01/30 13:48:01;;;;;;;19.40;4.30;;;;;;;;;;5099836;28;20198;-82
2021/01/30 13:50:28;;;;;;;16.20;4.20;;;;;;;;;;5099656;28;20176;-83
2021/01/30 13:52:54;;;;;;;20.77;4.70;;;;;;;;;;5096230;28;20560;-79
2021/01/30 13:55:20;;;;;;;15.50;3.58;;;;;;;;;;5097194;28;20191;-81
2021/01/30 13:57:46;;;;;;;16.00;4.25;;;;;;;;;;5099831;28;20210;-80
2021/01/30 14:00:14;;;;;;;18.13;4.18;;;;;;;;;;5094632;28;20193;-81
2021/01/30 14:02:40;;;;;;;18.98;5.28;;;;;;;;;;5099662;28;20321;-82
2021/01/30 14:05:07;;;;;;;15.68;3.85;;;;;;;;;;5099236;28;20172;-82
2021/01/30 14:07:33;;;;;;;11.30;3.95;;;;;;;;;;5101021;28;20187;-81
2021/01/30 14:09:59;;;;;;;13.68;3.78;;;;;;;;;;5101101;28;20176;-82
2021/01/30 14:12:25;;;;;;;13.50;3.73;;;;;;;;;;5101762;28;20883;-82
2021/01/30 14:14:51;;;;;;;15.43;3.90;;;;;;;;;;5096970;28;20465;-81
2021/01/30 14:17:17;;;;;;;17.10;4.40;;;;;;;;;;5089535;28;20446;-82
2021/01/30 14:19:43;;;;;;;15.13;4.38;;;;;;;;;;5100762;28;20180;-81
2021/01/30 14:22:09;;;;;;;17.38;4.20;;;;;;;;;;5098856;28;20180;-82
2021/01/30 14:24:35;;;;;;;13.63;4.13;;;;;;;;;;5100075;28;20197;-81
2021/01/30 14:27:01;;;;;;;19.67;5.00;;;;;;;;;;5092924;28;20429;-81
2021/01/30 14:29:27;;;;;;;17.90;4.20;;;;;;;;;;5091334;28;20425;-82
2021/01/30 14:32:00;;;;;;;25.90;6.30;;;;;;;;;;5101353;28;20838;-82
2021/01/30 14:34:26;;;;;;;15.63;4.25;;;;;;;;;;5103239;28;20211;-81
2021/01/30 14:36:52;;;;;;;17.65;5.00;;;;;;;;;;5111927;28;20180;-82
2021/01/30 14:39:18;;;;;;;15.93;4.03;;;;;;;;;;5099846;28;20237;-82
2021/01/30 14:41:45;;;;;;;17.75;4.60;;;;;;;;;;5103376;28;20834;-81
2021/01/30 14:44:11;;;;;;;16.00;4.70;;;;;;;;;;5103345;28;20240;-82
2021/01/30 14:46:38;;;;;;;14.45;5.00;;;;;;;;;;5101133;28;20183;-82
2021/01/30 14:49:04;;;;;;;21.30;4.28;;;;;;;;;;5094237;28;20199;-82
2021/01/30 14:51:30;;;;;;;20.77;4.72;;;;;;;;;;5094645;28;20182;-82